Time;durP1;ratioP1;P1;durP2;ratioP2;P2;SDS_P1;SDS_P2;PMS_P1;PMS_P2;Temp;Humidity;BMP_temperature;BMP_pressure;BME280_temperature;BME280_humidity;BME280_pressure;Samples;Min_cycle;Max_cycle;Signal;HPM_P1;HPM_P2
2022/05/16 00:02:15;;;;;;;3.03;1.27;;;;;;;13.77;54.63;101184.75;6160685;23;20032;-86
2022/05/16 00:04:45;;;;;;;5.18;1.90;;;;;;;13.73;54.82;101184.78;6136618;23;20063;-85
2022/05/16 00:07:13;;;;;;;3.05;1.45;;;;;;;13.70;54.90;101179.59;6161497;23;20040;-85
2022/05/16 00:09:43;;;;;;;1.33;0.98;;;;;;;13.67;55.00;101174.34;6160370;23;20239;-82
2022/05/16 00:12:12;;;;;;;2.45;1.27;;;;;;;13.63;55.48;101170.00;6158735;23;20013;-86
2022/05/16 00:14:47;;;;;;;4.28;1.30;;;;;;;13.57;55.68;101173.59;6139965;23;20025;-85
2022/05/16 00:17:17;;;;;;;1.38;0.75;;;;;;;13.54;55.49;101175.41;6162632;23;20044;-88
2022/05/16 00:19:44;;;;;;;4.15;1.10;;;;;;;13.51;55.67;101172.81;6140270;23;20376;-86
2022/05/16 00:22:11;;;;;;;2.85;1.08;;;;;;;13.51;55.68;101178.09;6135046;23;20055;-85
2022/05/16 00:24:44;;;;;;;4.25;1.10;;;;;;;13.49;55.86;101177.22;6161424;23;20052;-87
2022/05/16 00:27:13;;;;;;;2.05;0.75;;;;;;;13.44;55.67;101169.41;6141360;23;20017;-86
2022/05/16 00:29:47;;;;;;;1.30;0.80;;;;;;;13.43;55.98;101179.91;6141635;23;20160;-87
2022/05/16 00:32:16;;;;;;;1.98;1.02;;;;;;;13.38;56.08;101174.72;6139867;23;20029;-83
2022/05/16 00:34:48;;;;;;;1.52;1.00;;;;;;;13.36;56.36;101176.47;6138041;23;20054;-82
2022/05/16 00:37:17;;;;;;;2.55;1.10;;;;;;;13.32;56.31;101165.09;6136509;23;20033;-86
2022/05/16 00:39:45;;;;;;;1.30;1.20;;;;;;;13.28;56.20;101160.78;6160411;23;20029;-84
2022/05/16 00:42:13;;;;;;;1.30;1.08;;;;;;;13.21;56.48;101167.88;6157165;23;20029;-85
2022/05/16 00:44:49;;;;;;;1.77;1.08;;;;;;;13.20;56.74;101163.50;6134359;23;20025;-85
2022/05/16 00:47:23;;;;;;;4.57;1.58;;;;;;;13.17;56.90;101162.69;6137160;23;20031;-86
2022/05/16 00:49:59;;;;;;;1.20;0.90;;;;;;;13.17;57.01;101162.69;6137993;23;20072;-86
2022/05/16 00:52:34;;;;;;;1.95;1.15;;;;;;;13.14;57.22;101142.56;6134885;23;20092;-84
2022/05/16 00:55:15;;;;;;;1.83;0.93;;;;;;;13.10;57.23;101139.97;6136403;23;20025;-87
2022/05/16 00:57:50;;;;;;;1.35;1.25;;;;;;;13.07;57.17;101143.50;6138506;23;20124;-84
2022/05/16 01:00:24;;;;;;;7.50;2.78;;;;;;;13.03;57.77;101136.56;6161584;23;20032;-86
2022/05/16 01:05:59;;;;;;;2.38;1.15;;;;;;;12.98;57.83;101133.09;6141842;23;20412;-87
2022/05/16 01:08:33;;;;;;;1.85;1.33;;;;;;;12.98;57.92;101138.34;6135230;23;20779;-87
2022/05/16 01:11:08;;;;;;;1.77;1.67;;;;;;;12.95;58.05;101130.53;6134463;23;20155;-86
2022/05/16 01:13:35;;;;;;;3.25;1.27;;;;;;;12.92;57.99;101128.78;6176610;23;20048;-84
2022/05/16 01:16:04;;;;;;;3.97;1.20;;;;;;;12.87;58.22;101126.19;6159751;23;20021;-84
2022/05/16 01:18:31;;;;;;;1.65;1.05;;;;;;;12.86;58.11;101128.84;6137811;23;20033;-85
2022/05/16 01:21:38;;;;;;;2.25;1.75;;;;;;;12.78;58.63;101115.78;6161583;23;20021;-84
2022/05/16 01:24:14;;;;;;;1.85;1.05;;;;;;;12.74;58.91;101124.59;6135655;23;20085;-85
2022/05/16 01:26:42;;;;;;;3.55;1.20;;;;;;;12.70;58.99;101115.88;6159869;23;20084;-83
2022/05/16 01:29:09;;;;;;;2.65;1.50;;;;;;;12.67;59.05;101117.66;6135992;23;20025;-85
2022/05/16 01:31:37;;;;;;;2.47;0.98;;;;;;;12.61;58.94;101105.47;6134595;23;20036;-85
2022/05/16 01:34:04;;;;;;;3.80;1.20;;;;;;;12.55;59.33;101109.03;6162265;23;20041;-83
2022/05/16 01:36:31;;;;;;;1.80;1.50;;;;;;;12.51;59.38;101109.06;6134839;23;20551;-84
2022/05/16 01:39:01;;;;;;;1.48;1.38;;;;;;;12.43;59.65;101111.75;6110561;23;20021;-85
2022/05/16 01:41:29;;;;;;;3.95;1.30;;;;;;;12.38;60.05;101119.69;6133036;23;20013;-86
2022/05/16 01:44:00;;;;;;;2.00;1.25;;;;;;;12.35;60.03;101113.59;6107584;23;20104;-82
2022/05/16 01:46:33;;;;;;;3.78;1.52;;;;;;;12.31;60.10;101114.50;6158527;23;20055;-86
2022/05/16 01:48:59;;;;;;;2.70;1.90;;;;;;;12.26;60.21;101114.53;6182949;23;20028;-85
2022/05/16 01:51:26;;;;;;;2.85;1.30;;;;;;;12.23;60.70;101117.19;6155862;23;20071;-86
2022/05/16 01:53:54;;;;;;;1.55;1.05;;;;;;;12.17;60.77;101112.84;6136402;23;20051;-85
2022/05/16 01:56:21;;;;;;;3.70;1.67;;;;;;;12.13;60.85;101118.16;6154541;23;20026;-84
2022/05/16 01:58:48;;;;;;;3.03;1.67;;;;;;;12.09;61.24;101112.06;6153556;23;20048;-83
2022/05/16 02:01:15;;;;;;;3.30;1.45;;;;;;;12.06;61.08;101117.34;6132289;23;20025;-85
2022/05/16 02:03:49;;;;;;;3.97;1.05;;;;;;;12.01;61.66;101117.34;6138357;23;20025;-87
2022/05/16 02:06:16;;;;;;;3.00;1.80;;;;;;;11.99;61.89;101120.88;6134173;23;20020;-86
2022/05/16 02:08:47;;;;;;;4.30;1.60;;;;;;;11.95;61.86;101117.41;6157912;23;20411;-85
2022/05/16 02:11:14;;;;;;;3.40;1.67;;;;;;;11.94;61.84;101112.13;6109565;23;20025;-86
2022/05/16 02:13:45;;;;;;;1.95;1.15;;;;;;;11.89;62.10;101101.69;6084732;23;20090;-83
2022/05/16 02:16:12;;;;;;;2.72;1.30;;;;;;;11.87;62.26;101099.06;6135885;23;20072;-86
2022/05/16 02:18:41;;;;;;;3.00;1.30;;;;;;;11.84;62.44;101092.97;6137145;23;20440;-86
2022/05/16 02:26:37;;;;;;;11.25;4.00;;;;;;;11.63;62.87;101080.84;6134687;23;20365;-84
2022/05/16 02:29:03;;;;;;;3.25;1.00;;;;;;;11.62;62.91;101073.91;6128184;23;20100;-86
2022/05/16 02:31:30;;;;;;;2.47;1.20;;;;;;;11.55;63.21;101070.41;6153245;23;20021;-84
2022/05/16 02:33:57;;;;;;;2.35;1.23;;;;;;;11.47;63.70;101073.13;6128824;23;20048;-84
2022/05/16 02:36:24;;;;;;;3.13;1.30;;;;;;;11.43;63.56;101071.38;6154066;23;20028;-86
2022/05/16 02:38:50;;;;;;;0.95;0.95;;;;;;;11.38;63.90;101075.75;6154601;23;20102;-85
2022/05/16 02:41:17;;;;;;;2.05;1.20;;;;;;;11.34;64.22;101085.41;6152150;23;20027;-83
2022/05/16 02:43:46;;;;;;;3.80;1.70;;;;;;;11.29;64.39;101083.69;6152545;23;20027;-85
2022/05/16 02:46:16;;;;;;;2.35;0.93;;;;;;;11.24;64.44;101073.22;6130932;23;20354;-84
2022/05/16 02:48:43;;;;;;;3.15;1.20;;;;;;;11.20;64.61;101075.00;6155459;23;20832;-86
2022/05/16 02:51:13;;;;;;;5.75;1.20;;;;;;;11.18;64.81;101075.88;6152351;23;20412;-84
2022/05/16 02:53:39;;;;;;;2.30;1.20;;;;;;;11.17;64.51;101074.13;6151671;23;20400;-81
2022/05/16 02:56:06;;;;;;;1.30;1.20;;;;;;;11.13;64.57;101081.13;6153571;23;20025;-84
2022/05/16 02:58:32;;;;;;;1.30;0.90;;;;;;;11.08;64.87;101086.41;6129557;23;20029;-84
2022/05/16 03:00:59;;;;;;;4.07;1.10;;;;;;;11.06;65.43;101084.66;6131575;23;20085;-85
2022/05/16 03:03:26;;;;;;;4.40;1.05;;;;;;;11.04;65.22;101082.06;6154850;23;20075;-84
2022/05/16 03:05:53;;;;;;;2.80;1.73;;;;;;;11.01;65.25;101086.44;6153125;23;20029;-85
2022/05/16 03:08:19;;;;;;;1.40;1.02;;;;;;;10.97;65.73;101080.31;6152637;23;20083;-82
2022/05/16 03:10:49;;;;;;;1.98;0.93;;;;;;;11.00;65.25;101074.19;6153441;23;20051;-86
2022/05/16 03:13:15;;;;;;;2.25;1.63;;;;;;;10.98;65.85;101073.34;6128684;23;20025;-85
2022/05/16 03:15:42;;;;;;;7.05;1.40;;;;;;;11.04;65.77;101068.97;6131074;23;20021;-84
2022/05/16 03:18:09;;;;;;;2.92;0.98;;;;;;;11.05;65.49;101064.56;6130586;23;20456;-85
2022/05/16 03:20:35;;;;;;;3.72;1.20;;;;;;;11.05;65.39;101062.81;6130136;23;20021;-86
2022/05/16 03:23:03;;;;;;;3.83;1.00;;;;;;;11.02;65.76;101060.22;6128235;23;20028;-85
2022/05/16 03:25:29;;;;;;;1.67;1.13;;;;;;;11.01;65.48;101058.47;6154400;23;20429;-86
2022/05/16 03:27:56;;;;;;;4.35;2.17;;;;;;;11.00;65.49;101053.25;6128768;23;20048;-85
2022/05/16 03:30:23;;;;;;;3.10;1.02;;;;;;;10.98;65.65;101048.00;6130794;23;20009;-88
2022/05/16 03:32:50;;;;;;;2.22;1.30;;;;;;;10.96;65.77;101055.00;6128446;23;20046;-85
2022/05/16 03:35:18;;;;;;;9.57;1.45;;;;;;;10.94;66.05;101059.38;6128968;23;20021;-83
2022/05/16 03:37:45;;;;;;;2.08;1.15;;;;;;;10.93;65.86;101052.41;6129881;23;20025;-83
2022/05/16 03:42:56;;;;;;;1.83;1.30;;;;;;;10.89;65.99;101053.28;6133879;23;20032;-85
2022/05/16 03:45:24;;;;;;;1.35;1.10;;;;;;;10.86;66.43;101051.56;6155701;23;20438;-84
2022/05/16 03:47:50;;;;;;;2.88;1.48;;;;;;;10.84;66.46;101055.91;6155716;23;20025;-85
2022/05/16 03:50:18;;;;;;;3.22;1.27;;;;;;;10.85;66.15;101046.34;6153753;23;20021;-87
2022/05/16 03:52:47;;;;;;;5.38;1.23;;;;;;;10.86;66.53;101040.19;6174225;23;20096;-88
2022/05/16 03:55:16;;;;;;;4.88;2.50;;;;;;;10.86;66.34;101040.19;6128104;23;20024;-86
2022/05/16 03:57:44;;;;;;;2.38;1.08;;;;;;;10.87;66.42;101039.31;6153450;23;20034;-87
2022/05/16 04:00:15;;;;;;;1.42;1.33;;;;;;;10.88;66.58;101038.44;6130749;23;20025;-85
2022/05/16 04:02:42;;;;;;;1.92;1.20;;;;;;;10.90;66.87;101021.00;6129279;23;20245;-84
2022/05/16 04:05:11;;;;;;;1.73;1.42;;;;;;;10.92;66.39;101020.13;6132358;23;20366;-85
2022/05/16 04:07:38;;;;;;;3.97;1.55;;;;;;;10.95;66.09;101029.72;6155550;23;20031;-83
2022/05/16 04:10:05;;;;;;;8.13;1.70;;;;;;;10.96;66.51;101020.09;6131912;23;20055;-86
2022/05/16 04:12:32;;;;;;;3.25;1.25;;;;;;;10.97;66.40;101019.22;6130642;23;20033;-87
2022/05/16 04:15:00;;;;;;;4.60;1.38;;;;;;;10.97;66.47;101013.97;6182961;23;20040;-85
2022/05/16 04:17:27;;;;;;;4.78;1.42;;;;;;;10.96;66.62;101014.84;6136499;23;20009;-86
2022/05/16 04:19:54;;;;;;;1.73;1.58;;;;;;;11.01;66.27;101019.19;6132194;23;20031;-85
2022/05/16 04:22:21;;;;;;;4.18;1.35;;;;;;;11.01;66.21;101013.94;6129730;23;20025;-82
2022/05/16 04:24:49;;;;;;;4.45;2.25;;;;;;;11.04;65.94;101011.31;6130854;23;20028;-84
2022/05/16 04:27:16;;;;;;;7.22;2.35;;;;;;;11.08;66.52;101009.53;6131503;23;20028;-86
2022/05/16 04:29:43;;;;;;;4.05;1.20;;;;;;;11.11;66.14;101006.91;6131534;23;20029;-86
2022/05/16 04:32:10;;;;;;;2.67;1.90;;;;;;;11.18;66.18;101016.47;6155747;23;20021;-86
2022/05/16 04:34:37;;;;;;;3.30;1.33;;;;;;;11.22;65.77;101022.56;6155368;23;20021;-88
2022/05/16 04:37:04;;;;;;;4.28;1.70;;;;;;;11.28;65.52;101021.66;6156807;23;20352;-86
2022/05/16 04:39:30;;;;;;;1.88;1.25;;;;;;;11.33;65.75;101025.13;6154278;23;20401;-86
2022/05/16 04:44:42;;;;;;;;;;;;;;;11.43;65.85;101016.31;6174579;23;20048;-86
2022/05/16 04:47:10;;;;;;;2.00;1.50;;;;;;;11.48;65.41;101016.31;6106421;23;19999;-85
2022/05/16 04:49:38;;;;;;;6.90;1.58;;;;;;;11.52;65.31;101020.63;6131785;23;20028;-86
2022/05/16 04:52:05;;;;;;;2.58;1.50;;;;;;;11.59;65.11;101032.84;6131420;23;20056;-83
2022/05/16 04:54:32;;;;;;;3.42;1.67;;;;;;;11.63;64.91;101031.03;6130318;23;20048;-85
2022/05/16 04:56:59;;;;;;;3.92;1.70;;;;;;;11.66;64.83;101024.03;6131890;23;20438;-85
2022/05/16 04:59:26;;;;;;;6.57;2.08;;;;;;;11.69;64.43;101018.78;6181985;23;20364;-85
2022/05/16 05:01:53;;;;;;;3.85;1.58;;;;;;;11.74;64.59;101021.34;6132756;23;20021;-87
2022/05/16 05:04:20;;;;;;;4.03;1.88;;;;;;;11.77;64.27;101028.31;6134957;23;20076;-86
2022/05/16 05:06:48;;;;;;;2.95;1.73;;;;;;;11.78;64.35;101022.19;6158146;23;20021;-85
2022/05/16 05:09:15;;;;;;;4.32;1.65;;;;;;;11.80;64.59;101021.31;6130938;23;20052;-86
2022/05/16 05:14:35;;;;;;;3.80;1.80;;;;;;;11.83;64.13;101025.66;6132128;23;20017;-85
2022/05/16 05:17:10;;;;;;;3.95;2.08;;;;;;;11.83;64.34;101018.66;6135342;23;20036;-84
2022/05/16 05:19:40;;;;;;;3.75;1.70;;;;;;;11.88;64.04;101023.88;6158249;23;20051;-86
2022/05/16 05:22:07;;;;;;;6.15;1.92;;;;;;;11.90;64.22;101029.94;6132060;23;20021;-82
2022/05/16 05:24:34;;;;;;;4.68;3.15;;;;;;;11.89;64.14;101030.88;6131714;23;20315;-85
2022/05/16 05:27:01;;;;;;;7.90;1.80;;;;;;;11.89;63.96;101026.47;6133541;23;20056;-84
2022/05/16 05:29:28;;;;;;;3.80;1.98;;;;;;;11.92;63.99;101026.44;6157549;23;20025;-85
2022/05/16 05:31:54;;;;;;;2.42;2.15;;;;;;;11.96;63.70;101031.72;6131625;23;20028;-85
2022/05/16 05:34:21;;;;;;;7.72;2.30;;;;;;;12.02;64.02;101032.53;6159320;23;20109;-82
2022/05/16 05:36:51;;;;;;;2.03;1.40;;;;;;;12.06;63.81;101030.75;6160291;23;20388;-82
2022/05/16 05:39:20;;;;;;;1.88;1.77;;;;;;;12.14;63.56;101028.06;6160618;23;20298;-86
2022/05/16 05:41:47;;;;;;;7.35;2.13;;;;;;;12.18;63.30;101033.25;6132242;23;20640;-84
2022/05/16 05:44:17;;;;;;;5.28;2.13;;;;;;;12.25;62.96;101023.53;6132547;23;20021;-85
2022/05/16 05:46:44;;;;;;;2.83;1.65;;;;;;;12.30;63.09;101023.50;6141385;23;20055;-84
2022/05/16 05:49:12;;;;;;;3.28;1.63;;;;;;;12.36;63.17;101026.09;6161132;23;20083;-85
2022/05/16 05:51:39;;;;;;;4.18;2.22;;;;;;;12.44;62.49;101020.72;6159145;23;20021;-83
2022/05/16 05:54:07;;;;;;;2.85;1.70;;;;;;;12.51;62.38;101014.53;6182393;23;20021;-82
2022/05/16 05:56:34;;;;;;;3.83;1.98;;;;;;;12.60;61.92;101019.69;6134800;23;20027;-85
2022/05/16 05:59:01;;;;;;;7.75;1.67;;;;;;;12.70;62.04;101025.72;6131724;23;20032;-84
2022/05/16 06:01:28;;;;;;;2.60;1.70;;;;;;;12.80;61.31;101023.81;6131051;23;20111;-87
2022/05/16 06:03:55;;;;;;;2.72;1.75;;;;;;;12.91;61.17;101022.81;6129512;23;20025;-85
2022/05/16 06:06:21;;;;;;;6.35;1.83;;;;;;;13.00;60.71;101032.34;6129659;23;20025;-84
2022/05/16 06:08:48;;;;;;;4.78;1.65;;;;;;;13.10;60.72;101035.69;6154081;23;20029;-84
2022/05/16 06:11:17;;;;;;;3.20;2.40;;;;;;;13.18;60.14;101030.34;6152685;23;20360;-84
2022/05/16 06:13:44;;;;;;;3.22;1.80;;;;;;;13.25;59.29;101026.75;6128517;23;20418;-84
2022/05/16 06:16:11;;;;;;;4.35;2.35;;;;;;;13.29;59.19;101031.06;6131651;23;20036;-82
2022/05/16 06:18:38;;;;;;;5.07;3.08;;;;;;;13.34;59.37;101029.25;6130959;23;20009;-85
2022/05/16 06:21:06;;;;;;;5.13;2.30;;;;;;;13.39;59.50;101026.59;6126049;23;20107;-85
2022/05/16 06:23:32;;;;;;;4.17;1.90;;;;;;;13.48;59.18;101018.56;6126765;23;20345;-85
2022/05/16 06:26:00;;;;;;;2.10;1.90;;;;;;;13.59;59.08;101022.78;6129481;23;20106;-84
2022/05/16 06:28:31;;;;;;;4.20;2.35;;;;;;;13.69;59.03;101019.97;6129696;23;20516;-82
2022/05/16 06:30:58;;;;;;;3.70;2.47;;;;;;;13.78;58.50;101024.22;6132392;23;20055;-86
2022/05/16 06:33:28;;;;;;;4.88;2.20;;;;;;;13.84;58.57;101024.09;6131278;23;20035;-86
2022/05/16 06:35:56;;;;;;;3.25;2.90;;;;;;;13.92;58.44;101028.38;6130152;23;20020;-86
2022/05/16 06:38:29;;;;;;;4.90;2.42;;;;;;;14.01;58.30;101020.34;6130504;23;20021;-84
2022/05/16 06:40:56;;;;;;;3.58;2.50;;;;;;;14.07;57.75;101018.44;6152559;23;20047;-86
2022/05/16 06:43:25;;;;;;;4.22;2.15;;;;;;;14.15;57.90;101020.09;6129439;23;20025;-83
2022/05/16 06:45:53;;;;;;;3.72;2.28;;;;;;;14.23;57.50;101015.56;6133573;23;20069;-83
2022/05/16 06:48:20;;;;;;;6.20;3.38;;;;;;;14.31;57.12;101013.63;6130140;23;20205;-85
2022/05/16 06:50:48;;;;;;;5.10;2.97;;;;;;;14.37;57.18;101013.53;6156065;23;20416;-83
2022/05/16 06:53:21;;;;;;;3.15;2.28;;;;;;;14.43;56.99;101007.28;6128232;23;20020;-85
2022/05/16 06:55:48;;;;;;;6.80;2.67;;;;;;;14.56;56.81;101014.06;6130357;23;20027;-85
2022/05/16 06:58:15;;;;;;;4.95;2.78;;;;;;;14.77;56.25;101009.28;6128079;23;20486;-83
2022/05/16 07:00:42;;;;;;;4.78;2.42;;;;;;;15.03;55.73;101005.19;6130701;23;20179;-83
2022/05/16 07:03:13;;;;;;;7.57;2.65;;;;;;;15.26;54.72;101009.13;6155784;23;20025;-83
2022/05/16 07:05:40;;;;;;;5.57;1.98;;;;;;;15.50;54.00;101003.28;6133003;23;20040;-85
2022/05/16 07:08:07;;;;;;;5.15;2.88;;;;;;;15.76;53.36;101007.06;6182570;23;20106;-84
2022/05/16 07:10:34;;;;;;;4.20;2.33;;;;;;;16.15;53.04;100998.16;6133386;23;20037;-87
2022/05/16 07:13:01;;;;;;;5.68;2.50;;;;;;;16.64;52.10;100983.56;6164592;23;20316;-84
2022/05/16 07:15:28;;;;;;;3.67;2.05;;;;;;;17.07;50.91;100984.09;6134012;23;20352;-84
2022/05/16 07:17:55;;;;;;;5.57;2.05;;;;;;;17.45;49.33;100976.72;6146714;23;20031;-85
2022/05/16 07:20:22;;;;;;;3.20;1.80;;;;;;;17.79;48.98;100974.75;6134110;23;20375;-84
2022/05/16 07:22:49;;;;;;;3.88;2.38;;;;;;;18.26;47.95;100971.41;6130732;23;20021;-85
2022/05/16 07:25:25;;;;;;;7.78;2.42;;;;;;;18.87;46.70;100976.19;6107931;23;20017;-84
2022/05/16 07:27:57;;;;;;;7.95;2.97;;;;;;;19.44;44.89;100971.31;6132826;23;20020;-85
2022/05/16 07:30:30;;;;;;;3.80;2.00;;;;;;;19.76;43.59;100969.09;6157960;23;20139;-82
2022/05/16 07:32:58;;;;;;;;;;;;;;;20.02;42.94;100969.81;6154869;23;20028;-81
2022/05/16 07:35:33;;;;;;;4.28;2.50;;;;;;;20.35;42.18;100966.63;6130961;23;20296;-82
2022/05/16 07:38:01;;;;;;;4.00;2.50;;;;;;;20.21;42.19;100961.03;6182232;23;20021;-81
2022/05/16 07:40:36;;;;;;;4.82;2.00;;;;;;;19.92;43.35;100955.19;6130468;23;20021;-87
2022/05/16 07:43:03;;;;;;;4.53;2.08;;;;;;;19.85;43.28;100956.41;6127534;23;20091;-86
2022/05/16 07:45:31;;;;;;;2.67;2.47;;;;;;;19.86;43.27;100959.00;6157517;23;20024;-84
2022/05/16 07:48:00;;;;;;;2.53;1.75;;;;;;;20.27;42.59;100958.09;6152758;23;20028;-83
2022/05/16 07:50:28;;;;;;;4.97;2.17;;;;;;;20.83;41.36;100951.13;6130710;23;20025;-82
2022/05/16 07:52:57;;;;;;;7.97;2.28;;;;;;;21.43;40.28;100958.91;6127884;23;20024;-84
2022/05/16 07:55:25;;;;;;;3.47;2.03;;;;;;;21.72;39.64;100963.72;6181023;23;20017;-86
2022/05/16 07:57:55;;;;;;;5.28;2.08;;;;;;;22.05;39.34;100963.78;6132690;23;20025;-85
2022/05/16 08:00:24;;;;;;;5.63;2.45;;;;;;;22.37;38.54;100955.94;6156798;23;20024;-86
2022/05/16 08:02:52;;;;;;;4.40;3.30;;;;;;;22.94;37.75;100955.50;6154762;23;20031;-87
2022/05/16 08:05:21;;;;;;;2.50;1.80;;;;;;;23.73;37.00;100944.78;6153589;23;20017;-85
2022/05/16 08:10:33;;;;;;;4.53;1.77;;;;;;;24.94;34.19;100938.25;6182708;23;20033;-84
2022/05/16 08:13:09;;;;;;;3.80;1.90;;;;;;;25.21;33.81;100935.56;6131591;23;20083;-85
2022/05/16 08:15:38;;;;;;;2.95;1.73;;;;;;;25.51;33.28;100941.66;6136371;23;20104;-88
2022/05/16 08:18:06;;;;;;;6.97;2.38;;;;;;;25.72;32.49;100928.63;6133303;23;20048;-86
2022/05/16 08:20:37;;;;;;;8.52;2.00;;;;;;;25.56;32.70;100928.81;6159101;23;20024;-83
2022/05/16 08:23:04;;;;;;;3.30;1.92;;;;;;;25.70;32.08;100930.56;6131333;23;20024;-84
2022/05/16 08:25:32;;;;;;;5.38;2.13;;;;;;;25.53;32.63;100943.28;6157766;23;20096;-85
2022/05/16 08:27:59;;;;;;;6.82;2.30;;;;;;;25.74;32.16;100938.28;6157876;23;20088;-83
2022/05/16 08:30:26;;;;;;;4.93;2.50;;;;;;;26.25;31.83;100932.09;6137739;23;20059;-85
2022/05/16 08:32:53;;;;;;;5.70;2.20;;;;;;;26.98;30.63;100945.72;6136542;23;20364;-87
2022/05/16 08:35:23;;;;;;;5.03;1.70;;;;;;;27.39;30.49;100939.13;6133254;23;20076;-87
2022/05/16 08:40:49;;;;;;;6.38;2.42;;;;;;;28.27;28.50;100938.72;6140954;23;20031;-87
2022/05/16 08:43:30;;;;;;;5.90;2.63;;;;;;;28.17;28.56;100949.34;6136455;23;20032;-84
2022/05/16 08:46:26;;;;;;;6.97;2.28;;;;;;;28.00;28.69;100939.88;6136170;23;20025;-82
2022/05/16 08:48:59;;;;;;;3.55;1.75;;;;;;;28.20;28.58;100930.28;6137821;23;20024;-84
2022/05/16 08:51:31;;;;;;;6.55;2.35;;;;;;;28.79;27.88;100934.53;6186489;23;20016;-87
2022/05/16 08:54:42;;;;;;;3.30;2.53;;;;;;;28.76;27.84;100929.41;6145316;23;20032;-84
2022/05/16 08:57:14;;;;;;;3.53;2.33;;;;;;;29.20;27.64;100924.00;6140386;23;20120;-88
2022/05/16 08:59:46;;;;;;;9.73;2.88;;;;;;;29.64;27.41;100921.25;6158088;23;20013;-87
2022/05/16 09:02:22;;;;;;;8.38;2.75;;;;;;;30.37;26.69;100921.22;6112067;23;20132;-87
2022/05/16 09:05:03;;;;;;;4.72;2.55;;;;;;;30.47;25.79;100927.56;6160150;23;20364;-87
2022/05/16 09:07:43;;;;;;;4.75;2.50;;;;;;;30.19;25.96;100921.88;6162499;23;20029;-85
2022/05/16 09:10:16;;;;;;;4.13;2.50;;;;;;;30.72;25.72;100924.50;6135339;23;20028;-87
2022/05/16 09:13:09;;;;;;;4.65;2.92;;;;;;;31.46;25.00;100923.13;6157367;23;20033;-86
2022/05/16 09:15:59;;;;;;;4.50;2.53;;;;;;;31.46;24.75;100925.84;6185043;23;20032;-87
2022/05/16 09:19:11;;;;;;;7.78;3.03;;;;;;;31.72;24.12;100941.50;6162224;23;20362;-87
2022/05/16 09:21:37;;;;;;;8.88;2.80;;;;;;;31.71;24.23;100927.13;6158286;23;20031;-83
2022/05/16 09:24:27;;;;;;;5.38;2.60;;;;;;;31.73;24.10;100919.72;6155934;23;20015;-83
2022/05/16 09:27:12;;;;;;;5.60;2.63;;;;;;;31.96;23.82;100916.69;6134692;23;20040;-82
2022/05/16 09:29:45;;;;;;;3.92;2.10;;;;;;;32.15;23.52;100918.44;6163113;23;20043;-87
2022/05/16 09:32:37;;;;;;;3.70;1.90;;;;;;;32.33;23.80;100907.72;6164197;23;20057;-89
2022/05/16 09:35:05;;;;;;;5.45;2.00;;;;;;;32.35;23.86;100907.59;6138255;23;20021;-90
2022/05/16 09:37:32;;;;;;;4.50;2.65;;;;;;;32.55;23.14;100911.03;6162259;23;20430;-88
2022/05/16 09:39:59;;;;;;;4.40;2.50;;;;;;;32.71;23.34;100910.34;6136819;23;20021;-82
2022/05/16 09:42:32;;;;;;;5.15;2.30;;;;;;;33.03;22.45;100906.31;6135415;23;20024;-86
2022/05/16 09:45:03;;;;;;;5.63;2.20;;;;;;;33.55;22.02;100906.44;6139481;23;20021;-83
2022/05/16 09:47:34;;;;;;;9.27;2.03;;;;;;;33.60;22.28;100901.38;6166973;23;20344;-88
2022/05/16 09:50:04;;;;;;;7.47;2.03;;;;;;;33.58;21.65;100906.13;6166204;23;20039;-86
2022/05/16 09:52:45;;;;;;;5.50;1.90;;;;;;;33.72;22.42;100907.41;6163952;23;20029;-84
2022/05/16 09:55:43;;;;;;;3.58;2.20;;;;;;;34.72;20.59;100915.06;6142164;23;20005;-87
2022/05/16 09:58:20;;;;;;;4.10;2.80;;;;;;;35.17;20.54;100909.38;6185520;23;20081;-87
2022/05/16 10:01:11;;;;;;;3.03;2.20;;;;;;;34.91;20.33;100907.63;6164745;23;20017;-86
2022/05/16 10:03:50;;;;;;;4.40;2.15;;;;;;;34.96;20.24;100913.44;6141500;23;20025;-84
2022/05/16 10:06:41;;;;;;;5.50;2.22;;;;;;;33.99;21.16;100916.44;6139797;23;20017;-83
2022/05/16 10:09:15;;;;;;;3.20;2.20;;;;;;;34.05;21.19;100913.06;6140389;23;20263;-87
2022/05/16 10:11:48;;;;;;;5.75;2.25;;;;;;;34.11;20.93;100908.84;6164226;23;20017;-86
2022/05/16 10:14:15;;;;;;;3.60;1.88;;;;;;;34.26;21.41;100904.50;6162141;23;20054;-85
2022/05/16 10:16:47;;;;;;;9.07;2.85;;;;;;;34.24;21.17;100901.09;6141913;23;20005;-89
2022/05/16 10:19:19;;;;;;;5.85;2.47;;;;;;;34.49;20.89;100911.25;6140808;23;20021;-89
2022/05/16 10:21:57;;;;;;;8.55;2.40;;;;;;;34.61;20.49;100899.91;6138053;23;20036;-88
2022/05/16 10:24:32;;;;;;;3.97;1.70;;;;;;;35.07;20.32;100904.06;6139931;23;20201;-87
2022/05/16 10:27:06;;;;;;;2.95;1.92;;;;;;;35.75;20.10;100900.16;6137964;23;20015;-88
2022/05/16 10:29:40;;;;;;;2.72;1.90;;;;;;;36.00;20.09;100899.28;6186078;23;20001;-87
2022/05/16 10:35:12;;;;;;;8.80;2.60;;;;;;;36.12;19.47;100897.88;6140032;23;20019;-85
2022/05/16 10:37:44;;;;;;;3.53;2.10;;;;;;;36.35;19.69;100886.22;6137557;23;20036;-84
2022/05/16 10:40:33;;;;;;;7.47;2.35;;;;;;;37.14;18.36;100890.69;6161482;23;20021;-84
2022/05/16 10:43:38;;;;;;;3.92;2.05;;;;;;;37.51;18.31;100881.66;6135283;23;20392;-86
2022/05/16 10:46:14;;;;;;;5.65;2.63;;;;;;;38.10;18.25;100877.28;6136415;23;20025;-84
2022/05/16 10:48:49;;;;;;;7.07;2.10;;;;;;;38.65;17.55;100874.16;6133440;23;20041;-84
2022/05/16 10:51:50;;;;;;;5.07;3.30;;;;;;;37.95;17.77;100873.72;6131221;23;20040;-84
2022/05/16 10:54:21;;;;;;;10.05;2.35;;;;;;;37.66;18.45;100880.84;6157641;23;20532;-85
2022/05/16 10:57:13;;;;;;;4.90;2.20;;;;;;;37.77;18.66;100879.50;6130270;23;20085;-87
2022/05/16 10:59:49;;;;;;;;;;;;;;;36.68;19.08;100875.13;6183631;23;20020;-85
2022/05/16 11:02:41;;;;;;;4.85;2.58;;;;;;;36.35;19.79;100875.31;6155836;23;19920;-88
2022/05/16 11:05:29;;;;;;;2.42;2.22;;;;;;;34.33;21.41;100868.53;6165027;23;20112;-83
2022/05/16 11:08:36;;;;;;;5.53;2.55;;;;;;;32.56;23.26;100875.63;6191163;23;20471;-86
2022/05/16 11:11:26;;;;;;;4.13;1.85;;;;;;;31.24;24.53;100868.38;6129264;23;20025;-84
2022/05/16 11:14:13;;;;;;;3.95;2.47;;;;;;;30.94;25.19;100874.75;6159283;23;20085;-86
2022/05/16 11:16:41;;;;;;;7.03;2.60;;;;;;;31.36;24.97;100879.88;6186928;23;20415;-86
2022/05/16 11:19:48;;;;;;;3.47;2.30;;;;;;;32.35;23.75;100877.78;6184490;23;20044;-86
2022/05/16 11:22:49;;;;;;;3.35;1.67;;;;;;;32.89;23.43;100877.88;6184703;23;20025;-85
2022/05/16 11:25:34;;;;;;;2.88;2.38;;;;;;;32.89;23.29;100876.00;6158898;23;20056;-87
2022/05/16 11:28:25;;;;;;;3.78;2.30;;;;;;;33.61;23.03;100873.25;6184776;23;20096;-84
2022/05/16 11:31:06;;;;;;;3.05;1.90;;;;;;;34.42;21.32;100883.88;6155026;23;20091;-84
2022/05/16 11:33:44;;;;;;;2.40;1.42;;;;;;;34.59;21.82;100874.75;6155475;23;20051;-84
2022/05/16 11:36:31;;;;;;;7.53;2.60;;;;;;;34.98;21.48;100884.19;6157033;23;20041;-85
2022/05/16 11:39:05;;;;;;;4.60;2.00;;;;;;;34.82;21.67;100876.81;6154309;23;20025;-87
2022/05/16 11:41:55;;;;;;;3.08;1.88;;;;;;;34.39;21.90;100870.59;6129089;23;20040;-88
2022/05/16 11:44:55;;;;;;;2.67;1.55;;;;;;;33.87;23.00;100880.56;6129192;23;20548;-86
2022/05/16 11:48:15;;;;;;;4.82;2.60;;;;;;;33.14;23.24;100870.81;6135656;23;20436;-84
2022/05/16 11:50:59;;;;;;;3.95;2.47;;;;;;;31.81;25.17;100867.56;6118184;23;20055;-87
2022/05/16 11:53:47;;;;;;;4.68;1.77;;;;;;;30.77;26.73;100869.03;6185773;23;20391;-84
2022/05/16 12:02:36;;;;;;;5.13;2.53;;;;;;;28.00;30.99;100875.31;6042138;23;20059;-86
2022/05/16 12:05:03;;;;;;;4.38;2.10;;;;;;;27.48;31.31;100880.22;6161449;23;20025;-87
2022/05/16 12:07:41;;;;;;;2.08;1.88;;;;;;;27.32;31.79;100883.22;6162404;23;20136;-84
2022/05/16 12:10:10;;;;;;;3.15;1.60;;;;;;;27.16;32.21;100875.47;6138059;23;20796;-85
2022/05/16 12:12:50;;;;;;;2.92;2.25;;;;;;;26.90;33.05;100878.28;6156325;23;20069;-85
2022/05/16 12:15:25;;;;;;;4.38;1.92;;;;;;;26.60;33.24;100876.84;6135507;23;20031;-84
2022/05/16 12:17:57;;;;;;;6.05;2.65;;;;;;;26.55;33.15;100879.00;6189355;23;20460;-83
2022/05/16 12:20:42;;;;;;;2.95;2.03;;;;;;;26.57;33.91;100869.88;6162928;23;20047;-87
2022/05/16 12:23:12;;;;;;;3.90;2.00;;;;;;;26.68;33.43;100876.28;6160905;23;20132;-86